Time;durP1;ratioP1;P1;durP2;ratioP2;P2;SDS_P1;SDS_P2;PMS_P1;PMS_P2;Temp;Humidity;BMP_temperature;BMP_pressure;BME280_temperature;BME280_humidity;BME280_pressure;Samples;Min_cycle;Max_cycle;Signal;HPM_P1;HPM_P2
2021/07/03 00:04:48;;;;;;;11.63;10.23;;;20.40;67.80;;;;;;10419138;28;20064;-59
2021/07/03 00:09:49;;;;;;;11.10;9.43;;;20.40;67.90;;;;;;10418943;28;20049;-58
2021/07/03 00:14:49;;;;;;;10.38;9.05;;;20.40;67.80;;;;;;10418873;28;20433;-58
2021/07/03 00:19:50;;;;;;;11.15;9.50;;;20.40;67.70;;;;;;10418644;28;20037;-59
2021/07/03 00:24:51;;;;;;;11.38;10.07;;;20.40;67.70;;;;;;10415150;28;20115;-59
2021/07/03 00:29:51;;;;;;;10.85;9.32;;;20.40;67.60;;;;;;10418334;28;20036;-59
2021/07/03 00:34:52;;;;;;;9.60;8.32;;;20.40;67.60;;;;;;10417105;28;20029;-59
2021/07/03 00:39:53;;;;;;;9.30;8.38;;;20.40;67.50;;;;;;10416813;28;20061;-58
2021/07/03 00:44:54;;;;;;;11.23;9.65;;;20.30;67.50;;;;;;10416695;28;20022;-59
2021/07/03 00:49:55;;;;;;;9.85;8.68;;;20.30;67.40;;;;;;10415621;28;20124;-59
2021/07/03 00:54:55;;;;;;;10.02;8.95;;;20.30;67.40;;;;;;10406375;28;20037;-59
2021/07/03 00:59:56;;;;;;;11.38;8.85;;;20.40;67.50;;;;;;10426922;28;20478;-59
2021/07/03 01:04:57;;;;;;;11.18;8.52;;;20.30;67.30;;;;;;10417026;28;20160;-59
2021/07/03 01:09:58;;;;;;;10.32;8.48;;;20.40;67.30;;;;;;10411472;28;20128;-59
2021/07/03 01:14:58;;;;;;;9.82;8.82;;;20.30;67.30;;;;;;10415421;28;20470;-59
2021/07/03 01:19:59;;;;;;;8.85;7.40;;;20.30;67.30;;;;;;10416176;28;20389;-58
2021/07/03 01:25:01;;;;;;;10.75;9.65;;;20.30;67.20;;;;;;10416574;28;20053;-57
2021/07/03 01:30:04;;;;;;;10.02;8.65;;;20.30;67.20;;;;;;10416218;28;20017;-58
2021/07/03 01:35:06;;;;;;;9.95;8.57;;;20.30;67.20;;;;;;10415983;28;20065;-59
2021/07/03 01:40:08;;;;;;;10.23;8.25;;;20.30;67.10;;;;;;10415605;28;20053;-59
2021/07/03 01:45:09;;;;;;;9.32;8.32;;;20.30;67.00;;;;;;10415314;28;20364;-59
2021/07/03 01:50:12;;;;;;;9.23;8.18;;;20.30;67.00;;;;;;10410271;28;20565;-59
2021/07/03 01:55:12;;;;;;;10.43;8.93;;;20.30;66.90;;;;;;10406130;28;20379;-58
2021/07/03 02:00:14;;;;;;;9.88;8.88;;;20.30;66.90;;;;;;10424971;28;20112;-59
2021/07/03 02:05:15;;;;;;;9.13;7.55;;;20.30;66.90;;;;;;10415093;28;20120;-58
2021/07/03 02:10:15;;;;;;;10.07;8.70;;;20.30;66.90;;;;;;10410748;28;20105;-56
2021/07/03 02:15:16;;;;;;;8.50;7.55;;;20.30;66.80;;;;;;10414675;28;20389;-59
2021/07/03 02:20:17;;;;;;;9.13;7.72;;;20.30;66.70;;;;;;10413388;28;20033;-59
2021/07/03 02:25:18;;;;;;;8.95;7.65;;;20.30;66.70;;;;;;10414364;28;20024;-59
2021/07/03 02:30:20;;;;;;;7.30;6.30;;;20.30;67.00;;;;;;10414577;28;20525;-59
2021/07/03 02:35:21;;;;;;;8.73;7.75;;;20.30;66.90;;;;;;10414199;28;20068;-59
2021/07/03 02:40:21;;;;;;;8.25;7.20;;;20.30;67.10;;;;;;10413625;28;20042;-58
2021/07/03 02:45:23;;;;;;;12.55;7.75;;;20.30;67.50;;;;;;10414374;28;20029;-59
2021/07/03 02:50:24;;;;;;;9.50;7.97;;;20.30;67.80;;;;;;10408144;28;20374;-59
2021/07/03 02:55:25;;;;;;;8.23;7.18;;;20.30;67.70;;;;;;10406716;28;20033;-59
2021/07/03 03:00:26;;;;;;;8.65;7.10;;;20.30;67.70;;;;;;10430980;28;20030;-59
2021/07/03 03:05:26;;;;;;;10.60;7.30;;;20.30;68.20;;;;;;10421742;28;20059;-59
2021/07/03 03:10:27;;;;;;;10.35;7.60;;;20.30;67.70;;;;;;10418682;28;20029;-57
2021/07/03 03:15:28;;;;;;;7.75;6.93;;;20.30;67.60;;;;;;10419911;28;20029;-58
2021/07/03 03:20:29;;;;;;;8.32;7.25;;;20.30;67.70;;;;;;10420261;28;20386;-59
2021/07/03 03:25:29;;;;;;;7.88;7.00;;;20.30;67.60;;;;;;10420846;28;20034;-58
2021/07/03 03:30:30;;;;;;;8.40;7.15;;;20.30;67.60;;;;;;10421087;28;20036;-59
2021/07/03 03:35:31;;;;;;;8.10;7.32;;;20.20;67.50;;;;;;10419394;28;20053;-59
2021/07/03 03:40:32;;;;;;;7.90;7.07;;;20.20;67.50;;;;;;10420529;28;20053;-59
2021/07/03 03:45:32;;;;;;;8.57;7.53;;;20.20;67.60;;;;;;10419189;28;20022;-59
2021/07/03 03:50:34;;;;;;;8.10;6.97;;;20.30;67.50;;;;;;10412976;28;20061;-59
2021/07/03 03:55:35;;;;;;;8.38;7.47;;;20.30;67.50;;;;;;10414208;28;20067;-59
2021/07/03 04:00:35;;;;;;;8.70;7.13;;;20.20;67.50;;;;;;10428922;28;20104;-59
2021/07/03 04:05:36;;;;;;;8.60;6.90;;;20.20;67.50;;;;;;10419335;28;20393;-58
2021/07/03 04:10:37;;;;;;;7.32;6.43;;;20.20;67.50;;;;;;10419269;28;20021;-59
2021/07/03 04:15:38;;;;;;;8.07;6.93;;;20.20;67.40;;;;;;10419009;28;20045;-59
2021/07/03 04:20:39;;;;;;;8.02;6.97;;;20.20;67.30;;;;;;10407570;28;20105;-59
2021/07/03 04:25:39;;;;;;;7.78;7.05;;;20.20;67.40;;;;;;10418657;28;20029;-59
2021/07/03 04:30:40;;;;;;;7.97;6.50;;;20.20;68.00;;;;;;10418867;28;20025;-59
2021/07/03 04:35:41;;;;;;;7.43;6.35;;;20.20;67.40;;;;;;10418129;28;20075;-59
2021/07/03 04:40:41;;;;;;;9.75;7.50;;;20.20;67.30;;;;;;10417184;28;20125;-59
2021/07/03 04:45:42;;;;;;;8.55;7.05;;;20.20;67.30;;;;;;10415034;28;20092;-59
2021/07/03 04:50:43;;;;;;;7.55;6.57;;;20.20;67.30;;;;;;10413705;28;20453;-59
2021/07/03 04:55:44;;;;;;;7.38;6.63;;;20.20;67.30;;;;;;10416897;28;20470;-59
2021/07/03 05:00:45;;;;;;;8.10;6.70;;;20.20;67.30;;;;;;10426152;28;20033;-59
2021/07/03 05:05:45;;;;;;;8.27;6.80;;;20.20;67.30;;;;;;10416641;28;20082;-59
2021/07/03 05:10:46;;;;;;;7.22;6.50;;;20.20;67.40;;;;;;10417182;28;20065;-59
2021/07/03 05:15:47;;;;;;;10.63;7.70;;;20.20;67.40;;;;;;10415098;28;20107;-61
2021/07/03 05:20:48;;;;;;;10.32;8.52;;;20.20;68.40;;;;;;10415739;28;20104;-59
2021/07/03 05:25:52;;;;;;;9.70;7.05;;;20.30;68.90;;;;;;10416129;28;20120;-60
2021/07/03 05:30:53;;;;;;;10.20;8.40;;;20.30;69.20;;;;;;10416479;28;20025;-58
2021/07/03 05:35:53;;;;;;;10.77;7.95;;;20.30;69.80;;;;;;10416179;28;20041;-59
2021/07/03 05:40:59;;;;;;;13.38;7.60;;;20.30;70.20;;;;;;10415472;28;20046;-59
2021/07/03 05:45:59;;;;;;;16.25;8.38;;;20.40;70.00;;;;;;10430581;28;20053;-58
2021/07/03 05:51:02;;;;;;;18.60;7.20;;;20.40;69.90;;;;;;10415537;28;20026;-62
2021/07/03 05:56:03;;;;;;;12.00;7.20;;;20.40;70.00;;;;;;10414991;28;20037;-64
2021/07/03 06:01:04;;;;;;;17.55;8.05;;;20.40;69.80;;;;;;10414949;28;20116;-60
2021/07/03 06:06:05;;;;;;;30.65;8.80;;;20.40;69.60;;;;;;10405007;28;20470;-61
2021/07/03 06:11:06;;;;;;;33.13;8.43;;;20.40;69.70;;;;;;10414749;28;20037;-59
2021/07/03 06:16:07;;;;;;;23.88;9.18;;;20.40;69.60;;;;;;10414626;28;20545;-59
2021/07/03 06:21:08;;;;;;;20.80;8.30;;;20.40;69.80;;;;;;10414247;28;20040;-59
2021/07/03 06:26:08;;;;;;;17.85;9.25;;;20.40;69.80;;;;;;10414325;28;20113;-60
2021/07/03 06:31:09;;;;;;;25.98;10.88;;;20.40;70.00;;;;;;10415209;28;20064;-53
2021/07/03 06:36:10;;;;;;;28.13;11.20;;;20.40;70.10;;;;;;10422785;28;20026;-59
2021/07/03 06:41:10;;;;;;;30.85;11.15;;;20.40;70.70;;;;;;10421683;28;20081;-59
2021/07/03 06:46:11;;;;;;;25.98;10.68;;;20.40;70.60;;;;;;10422656;28;20024;-57
2021/07/03 06:51:12;;;;;;;25.90;12.02;;;20.40;70.40;;;;;;10408760;28;20057;-59
2021/07/03 06:56:12;;;;;;;24.48;11.40;;;20.50;70.30;;;;;;10410596;28;20033;-55
2021/07/03 07:01:13;;;;;;;16.15;10.10;;;20.40;70.10;;;;;;10419841;28;20179;-57
2021/07/03 07:06:14;;;;;;;20.92;12.00;;;20.40;70.30;;;;;;10414359;28;20101;-55
2021/07/03 07:11:14;;;;;;;21.60;10.48;;;20.40;70.10;;;;;;10399528;28;20044;-55
2021/07/03 07:16:15;;;;;;;17.77;11.73;;;20.40;70.20;;;;;;10417257;28;20126;-53
2021/07/03 07:21:16;;;;;;;18.35;11.38;;;20.40;70.40;;;;;;10420392;28;20470;-53
2021/07/03 07:26:16;;;;;;;21.40;12.02;;;20.50;71.00;;;;;;10420506;28;20029;-57
2021/07/03 07:31:19;;;;;;;15.43;11.95;;;20.50;70.70;;;;;;10408785;28;20029;-56
2021/07/03 07:36:19;;;;;;;20.20;11.57;;;20.50;70.30;;;;;;10419942;28;20052;-57
2021/07/03 07:41:20;;;;;;;19.02;11.68;;;20.50;70.20;;;;;;10419573;28;20136;-55
2021/07/03 07:46:21;;;;;;;16.27;10.68;;;20.50;70.10;;;;;;10416792;28;20026;-56
2021/07/03 07:51:22;;;;;;;17.98;11.00;;;20.50;70.20;;;;;;10418859;28;20033;-54
2021/07/03 07:56:23;;;;;;;14.55;11.13;;;20.50;70.10;;;;;;10418818;28;20040;-56
2021/07/03 08:01:24;;;;;;;15.27;11.57;;;20.50;70.00;;;;;;10419251;28;20033;-49
2021/07/03 08:06:25;;;;;;;19.33;11.38;;;20.60;70.20;;;;;;10419282;28;20099;-54
2021/07/03 08:11:25;;;;;;;16.80;12.20;;;20.60;70.70;;;;;;10418870;28;20166;-55
2021/07/03 08:16:26;;;;;;;23.15;12.40;;;20.60;70.90;;;;;;10419112;28;20041;-49
2021/07/03 08:21:27;;;;;;;23.00;13.05;;;20.60;70.30;;;;;;10426316;28;20091;-56
2021/07/03 08:26:28;;;;;;;19.88;12.13;;;20.60;70.40;;;;;;10417400;28;20084;-55
2021/07/03 08:31:30;;;;;;;22.48;14.15;;;20.60;70.40;;;;;;10418375;28;20477;-51
2021/07/03 08:36:30;;;;;;;14.70;11.30;;;20.60;70.40;;;;;;10416551;28;20033;-58
2021/07/03 08:41:34;;;;;;;18.13;12.52;;;20.60;70.40;;;;;;10413808;28;20125;-58
2021/07/03 08:46:35;;;;;;;15.45;11.27;;;20.60;70.50;;;;;;10414603;28;20022;-58
2021/07/03 08:51:36;;;;;;;18.13;11.13;;;20.70;70.50;;;;;;10416639;28;20033;-58
2021/07/03 08:56:37;;;;;;;15.00;11.20;;;20.70;70.40;;;;;;10431889;28;20021;-58
2021/07/03 09:01:49;;;;;;;15.75;10.63;;;20.70;70.40;;;;;;10417353;28;20045;-59
2021/07/03 09:06:49;;;;;;;16.63;9.77;;;20.70;70.30;;;;;;10417020;28;20025;-59
2021/07/03 09:11:54;;;;;;;14.95;10.48;;;20.70;70.30;;;;;;10404258;28;20120;-58
2021/07/03 09:16:59;;;;;;;15.23;10.02;;;20.70;70.20;;;;;;10402960;28;20026;-58
2021/07/03 09:22:00;;;;;;;11.38;9.50;;;20.70;70.20;;;;;;10418734;28;20056;-56
2021/07/03 09:27:02;;;;;;;13.75;9.25;;;20.70;70.20;;;;;;10416248;28;20052;-56
2021/07/03 09:32:09;;;;;;;20.02;10.32;;;20.70;70.10;;;;;;10416241;28;20034;-57
2021/07/03 09:37:12;;;;;;;14.00;8.82;;;20.70;70.10;;;;;;10430785;28;20394;-58
2021/07/03 09:42:14;;;;;;;17.23;10.40;;;20.70;70.00;;;;;;10415674;28;20080;-58
2021/07/03 09:47:16;;;;;;;14.00;9.80;;;20.70;70.00;;;;;;10403229;28;20037;-58
2021/07/03 09:52:21;;;;;;;14.05;8.60;;;20.80;70.00;;;;;;10415337;28;20053;-58
2021/07/03 09:57:24;;;;;;;13.30;8.25;;;20.80;70.00;;;;;;10415627;28;20025;-58
2021/07/03 10:02:26;;;;;;;11.07;8.75;;;20.70;69.90;;;;;;10415311;28;20462;-57
2021/07/03 10:07:43;;;;;;;12.23;9.40;;;20.80;69.80;;;;;;10413615;28;20021;-56
2021/07/03 10:12:55;;;;;;;12.55;8.80;;;20.80;69.80;;;;;;10411466;28;20084;-58
2021/07/03 10:18:21;;;;;;;13.13;8.90;;;20.80;69.80;;;;;;10400621;28;20064;-58
2021/07/03 10:23:22;;;;;;;15.57;9.32;;;20.80;69.60;;;;;;10416423;28;20535;-57
2021/07/03 10:28:35;;;;;;;11.25;7.30;;;20.80;69.60;;;;;;10413211;28;20033;-57
2021/07/03 10:33:49;;;;;;;10.10;8.05;;;20.80;69.50;;;;;;10414429;28;20095;-58
2021/07/03 10:38:50;;;;;;;9.60;7.43;;;20.80;69.50;;;;;;10414019;28;20069;-58
2021/07/03 10:44:07;;;;;;;11.10;8.60;;;20.90;69.60;;;;;;10413458;28;20076;-57
2021/07/03 10:49:14;;;;;;;10.48;8.85;;;20.90;69.40;;;;;;10414194;28;20034;-58
2021/07/03 10:54:24;;;;;;;10.57;8.93;;;20.90;69.60;;;;;;10413141;28;20021;-58
2021/07/03 10:59:24;;;;;;;9.82;8.18;;;20.90;69.60;;;;;;10410293;28;20040;-58
2021/07/03 11:04:25;;;;;;;9.90;8.10;;;20.90;69.40;;;;;;10413325;28;20354;-57
2021/07/03 11:09:28;;;;;;;9.15;8.13;;;20.90;69.50;;;;;;10412706;28;20033;-59
2021/07/03 11:14:29;;;;;;;10.18;8.23;;;20.90;69.50;;;;;;10402347;28;20466;-58
2021/07/03 11:19:30;;;;;;;10.70;7.72;;;20.90;69.50;;;;;;10420102;28;20052;-58
2021/07/03 11:24:41;;;;;;;9.27;7.72;;;20.90;69.50;;;;;;10422148;28;20370;-58
2021/07/03 11:29:43;;;;;;;10.55;7.38;;;20.90;69.50;;;;;;10420171;28;20070;-56
2021/07/03 11:34:52;;;;;;;9.18;7.50;;;20.90;69.50;;;;;;10419792;28;20035;-56
2021/07/03 11:39:54;;;;;;;11.70;8.52;;;21.00;69.50;;;;;;10419112;28;20050;-56
2021/07/03 11:44:55;;;;;;;10.77;7.40;;;20.90;69.30;;;;;;10419070;28;20065;-57
2021/07/03 11:49:55;;;;;;;13.45;7.93;;;21.00;69.20;;;;;;10419370;28;20021;-56
2021/07/03 11:55:05;;;;;;;20.42;8.45;;;21.00;69.30;;;;;;10418919;28;20385;-56
2021/07/03 12:00:10;;;;;;;16.30;7.95;;;21.00;69.40;;;;;;10419685;28;20137;-56
2021/07/03 12:05:14;;;;;;;11.25;8.05;;;21.00;69.20;;;;;;10419473;28;20053;-56
2021/07/03 12:10:14;;;;;;;8.77;7.55;;;21.00;69.20;;;;;;10418671;28;20385;-52
2021/07/03 12:15:15;;;;;;;12.60;7.70;;;21.00;69.30;;;;;;10405046;28;20086;-55
2021/07/03 12:20:19;;;;;;;12.25;7.63;;;21.10;69.40;;;;;;10420675;28;20068;-55
2021/07/03 12:25:20;;;;;;;11.95;7.65;;;21.10;69.40;;;;;;10418316;28;20044;-55
2021/07/03 12:30:22;;;;;;;11.38;8.00;;;21.10;69.10;;;;;;10414423;28;20060;-55
2021/07/03 12:35:23;;;;;;;10.63;7.40;;;21.10;69.10;;;;;;10417466;28;20032;-54
2021/07/03 12:40:25;;;;;;;8.98;7.93;;;21.10;69.00;;;;;;10417288;28;20544;-55
2021/07/03 12:45:26;;;;;;;10.73;7.55;;;21.10;68.90;;;;;;10416264;28;20557;-54
2021/07/03 12:50:27;;;;;;;10.77;7.40;;;21.10;68.90;;;;;;10414757;28;20112;-51
2021/07/03 12:55:46;;;;;;;10.52;7.60;;;21.10;69.00;;;;;;10414947;28;20057;-53
2021/07/03 13:00:47;;;;;;;10.20;7.45;;;21.10;68.90;;;;;;10415291;28;20040;-49
2021/07/03 13:06:05;;;;;;;13.43;7.60;;;21.10;68.90;;;;;;10416759;28;20033;-52
2021/07/03 13:11:07;;;;;;;8.82;6.90;;;21.10;68.90;;;;;;10402618;28;20029;-54
2021/07/03 13:16:07;;;;;;;11.60;7.70;;;21.00;68.80;;;;;;10416416;28;20460;-54
2021/07/03 13:21:08;;;;;;;11.77;7.03;;;21.10;68.80;;;;;;10422039;28;20033;-52
2021/07/03 13:26:12;;;;;;;16.10;8.15;;;21.10;69.10;;;;;;10416269;28;20143;-57
2021/07/03 13:31:13;;;;;;;17.08;8.50;;;21.10;70.40;;;;;;10405546;28;20448;-56
2021/07/03 13:36:14;;;;;;;14.60;7.95;;;21.10;69.10;;;;;;10415551;28;20141;-56
2021/07/03 13:41:15;;;;;;;14.27;7.95;;;21.10;69.20;;;;;;10414174;28;20048;-49
2021/07/03 13:46:16;;;;;;;12.45;7.40;;;21.10;69.60;;;;;;10415661;28;20036;-54
2021/07/03 13:51:17;;;;;;;11.93;8.07;;;21.10;69.10;;;;;;10415353;28;20084;-57
2021/07/03 13:56:18;;;;;;;14.27;7.57;;;21.10;69.10;;;;;;10415175;28;20033;-57
2021/07/03 14:01:19;;;;;;;10.70;7.15;;;21.10;69.20;;;;;;10415306;28;20112;-57
2021/07/03 14:06:19;;;;;;;12.90;7.65;;;21.00;69.30;;;;;;10415007;28;20049;-57
2021/07/03 14:11:20;;;;;;;13.95;8.45;;;21.00;69.30;;;;;;10414922;28;20112;-57
2021/07/03 14:16:21;;;;;;;14.27;7.38;;;21.00;69.30;;;;;;10414558;28;20503;-57
2021/07/03 14:21:22;;;;;;;15.90;7.88;;;21.00;69.30;;;;;;10413355;28;20047;-57
2021/07/03 14:26:29;;;;;;;12.70;7.43;;;21.00;69.30;;;;;;10414794;28;20025;-58
2021/07/03 14:31:30;;;;;;;12.45;7.55;;;21.00;69.30;;;;;;10414429;28;20060;-58
2021/07/03 14:36:31;;;;;;;18.55;7.88;;;21.00;69.30;;;;;;10414660;28;20112;-58
2021/07/03 14:41:31;;;;;;;13.95;7.72;;;21.00;69.40;;;;;;10413986;28;20128;-58
2021/07/03 14:46:32;;;;;;;17.27;8.50;;;21.10;70.60;;;;;;10414166;28;20021;-58
2021/07/03 14:51:33;;;;;;;13.35;7.85;;;21.10;70.70;;;;;;10410584;28;20029;-58
2021/07/03 14:56:34;;;;;;;12.38;7.40;;;21.10;70.90;;;;;;10422195;28;20029;-57
2021/07/03 15:01:35;;;;;;;11.15;7.40;;;21.10;70.90;;;;;;10421902;28;20037;-58
2021/07/03 15:06:35;;;;;;;13.02;7.47;;;21.10;71.00;;;;;;10421577;28;20521;-58
2021/07/03 15:11:36;;;;;;;11.68;6.93;;;21.10;70.90;;;;;;10421473;28;20034;-58
2021/07/03 15:16:37;;;;;;;11.13;7.53;;;21.10;69.70;;;;;;10408188;28;20087;-58
2021/07/03 15:21:38;;;;;;;9.35;7.10;;;21.10;69.70;;;;;;10426689;28;20076;-58
2021/07/03 15:26:39;;;;;;;12.52;7.50;;;21.10;70.00;;;;;;10420227;28;20026;-56
2021/07/03 15:31:41;;;;;;;23.13;7.53;;;21.10;70.10;;;;;;10419362;28;20040;-55
2021/07/03 15:36:41;;;;;;;27.70;8.80;;;21.10;70.40;;;;;;10418743;28;20033;-58
2021/07/03 15:41:43;;;;;;;15.02;7.88;;;21.10;70.50;;;;;;10417929;28;20417;-65
2021/07/03 15:46:44;;;;;;;20.27;7.70;;;21.10;71.40;;;;;;10416976;28;20108;-60
2021/07/03 15:51:45;;;;;;;22.20;7.32;;;21.20;71.00;;;;;;10419929;28;20460;-60
2021/07/03 15:56:45;;;;;;;27.15;9.85;;;21.20;70.20;;;;;;10398861;28;20076;-60
2021/07/03 16:01:46;;;;;;;18.05;8.68;;;21.30;70.60;;;;;;10416721;28;20029;-63
2021/07/03 16:06:47;;;;;;;14.07;8.35;;;21.30;70.80;;;;;;10405660;28;20079;-61
2021/07/03 16:11:48;;;;;;;11.35;8.07;;;21.30;71.80;;;;;;10418761;28;20151;-61
2021/07/03 16:16:48;;;;;;;19.38;9.38;;;21.30;71.90;;;;;;10405475;28;20473;-61
2021/07/03 16:21:49;;;;;;;11.90;8.35;;;21.30;71.70;;;;;;10422330;28;20473;-60
2021/07/03 16:26:50;;;;;;;16.48;8.20;;;21.30;71.60;;;;;;10418940;28;20036;-60
2021/07/03 16:31:52;;;;;;;12.57;8.00;;;21.20;71.40;;;;;;10412589;28;20036;-60
2021/07/03 16:36:53;;;;;;;12.35;7.63;;;21.20;71.30;;;;;;10418089;28;20029;-60
2021/07/03 16:41:53;;;;;;;11.23;7.15;;;21.20;71.30;;;;;;10416618;28;20077;-60
2021/07/03 16:46:54;;;;;;;13.65;7.40;;;21.20;71.10;;;;;;10418065;28;20118;-60
2021/07/03 16:51:56;;;;;;;15.95;7.82;;;21.20;70.90;;;;;;10417007;28;20355;-60
2021/07/03 16:56:57;;;;;;;9.07;7.13;;;21.20;70.70;;;;;;10416775;28;20482;-60
2021/07/03 17:01:58;;;;;;;7.95;6.45;;;21.20;71.00;;;;;;10417430;28;20100;-59
2021/07/03 17:07:00;;;;;;;11.40;6.95;;;21.20;70.80;;;;;;10416526;28;20112;-59
2021/07/03 17:12:01;;;;;;;12.27;7.82;;;21.20;71.10;;;;;;10415606;28;20029;-59
2021/07/03 17:17:02;;;;;;;12.63;6.85;;;21.20;71.20;;;;;;10412323;28;20036;-61
2021/07/03 17:22:03;;;;;;;10.82;7.20;;;21.20;70.30;;;;;;10415260;28;20528;-61
2021/07/03 17:27:04;;;;;;;11.75;7.57;;;21.20;70.70;;;;;;10414086;28;20076;-62
2021/07/03 17:32:06;;;;;;;8.98;7.18;;;21.20;71.60;;;;;;10414954;28;20381;-61
2021/07/03 17:37:06;;;;;;;11.07;6.97;;;21.20;71.70;;;;;;10409906;28;20033;-61
2021/07/03 17:42:07;;;;;;;10.57;7.68;;;21.20;70.70;;;;;;10408806;28;20444;-61
2021/07/03 17:47:08;;;;;;;8.27;6.97;;;21.20;70.70;;;;;;10405823;28;20041;-62
2021/07/03 17:52:09;;;;;;;14.65;7.90;;;21.20;70.80;;;;;;10415405;28;20029;-63
2021/07/03 17:57:11;;;;;;;8.73;6.88;;;21.20;72.50;;;;;;10395643;28;20140;-62
2021/07/03 18:02:13;;;;;;;10.82;6.70;;;21.20;71.10;;;;;;10407093;28;20519;-62
2021/07/03 18:07:14;;;;;;;8.60;6.28;;;21.20;71.10;;;;;;10406620;28;20029;-61
2021/07/03 18:12:15;;;;;;;10.48;7.32;;;21.20;71.30;;;;;;10407958;28;20043;-62
2021/07/03 18:17:16;;;;;;;10.07;7.57;;;21.20;71.50;;;;;;10410321;28;20029;-64
2021/07/03 18:22:17;;;;;;;11.25;7.88;;;21.30;72.40;;;;;;10413152;28;20034;-60
2021/07/03 18:27:19;;;;;;;12.27;7.72;;;21.30;72.30;;;;;;10398313;28;20085;-60
2021/07/03 18:32:20;;;;;;;13.00;7.45;;;21.30;71.80;;;;;;10412119;28;20115;-60
2021/07/03 18:37:21;;;;;;;10.23;6.43;;;21.20;72.00;;;;;;10407381;28;20030;-59
2021/07/03 18:42:22;;;;;;;8.82;6.95;;;21.30;72.10;;;;;;10411224;28;20050;-60
2021/07/03 18:47:22;;;;;;;8.65;7.07;;;21.30;72.20;;;;;;10385748;28;20034;-58
2021/07/03 18:52:23;;;;;;;10.82;7.18;;;21.30;72.40;;;;;;10406415;28;20071;-60
2021/07/03 18:57:24;;;;;;;11.40;6.45;;;21.30;72.40;;;;;;10400154;28;20049;-61
2021/07/03 19:02:25;;;;;;;8.70;6.30;;;21.30;72.50;;;;;;10404417;28;20541;-60
2021/07/03 19:07:26;;;;;;;8.23;5.95;;;21.30;72.50;;;;;;10388777;28;20037;-60
2021/07/03 19:12:29;;;;;;;14.23;7.22;;;21.30;72.50;;;;;;10410039;28;20034;-58
2021/07/03 19:17:30;;;;;;;11.10;7.32;;;21.30;72.70;;;;;;10409404;28;20034;-61
2021/07/03 19:22:31;;;;;;;9.82;7.43;;;21.30;72.50;;;;;;10413700;28;20029;-60
2021/07/03 19:27:32;;;;;;;11.40;7.55;;;21.30;72.30;;;;;;10413148;28;20026;-60
2021/07/03 19:32:33;;;;;;;11.02;7.63;;;21.30;72.30;;;;;;10413240;28;20061;-61
2021/07/03 19:37:34;;;;;;;8.77;7.00;;;21.30;72.30;;;;;;10411878;28;20030;-61
2021/07/03 19:42:37;;;;;;;11.85;6.75;;;21.20;72.20;;;;;;10420192;28;20378;-60
2021/07/03 19:47:38;;;;;;;7.13;5.93;;;21.20;72.20;;;;;;10420575;28;20497;-61
2021/07/03 19:52:39;;;;;;;9.90;7.53;;;21.30;72.20;;;;;;10418802;28;20033;-60
2021/07/03 19:57:40;;;;;;;10.18;7.22;;;21.20;72.10;;;;;;10418640;28;20029;-60
2021/07/03 20:02:42;;;;;;;11.35;6.88;;;21.20;72.10;;;;;;10419605;28;20056;-60
2021/07/03 20:07:44;;;;;;;10.65;8.23;;;21.20;72.10;;;;;;10419431;28;20524;-61
2021/07/03 20:12:45;;;;;;;9.82;7.53;;;21.20;72.00;;;;;;10418245;28;20033;-61
2021/07/03 20:17:46;;;;;;;11.02;7.43;;;21.20;72.00;;;;;;10405972;28;20042;-61
2021/07/03 20:22:48;;;;;;;9.63;6.55;;;21.20;72.00;;;;;;10424634;28;20033;-61
2021/07/03 20:27:49;;;;;;;8.90;6.55;;;21.20;72.00;;;;;;10418978;28;20029;-61
2021/07/03 20:32:51;;;;;;;7.28;6.22;;;21.20;72.10;;;;;;10418562;28;20106;-61
2021/07/03 20:37:53;;;;;;;10.02;7.10;;;21.20;71.90;;;;;;10418468;28;20026;-60
2021/07/03 20:42:54;;;;;;;9.85;6.90;;;21.20;72.00;;;;;;10418100;28;20037;-61
2021/07/03 20:47:55;;;;;;;8.88;6.32;;;21.20;72.00;;;;;;10417391;28;20030;-61
2021/07/03 20:52:56;;;;;;;9.30;8.00;;;21.20;72.00;;;;;;10417005;28;20037;-60
2021/07/03 20:57:57;;;;;;;7.47;6.70;;;21.20;72.00;;;;;;10418257;28;20018;-61
2021/07/03 21:02:57;;;;;;;7.82;6.95;;;21.20;71.90;;;;;;10417636;28;20120;-60
2021/07/03 21:07:58;;;;;;;6.95;6.20;;;21.20;72.00;;;;;;10417370;28;20049;-61
2021/07/03 21:12:59;;;;;;;7.57;6.78;;;21.20;71.80;;;;;;10417226;28;20064;-61
2021/07/03 21:18:00;;;;;;;8.18;6.93;;;21.10;71.80;;;;;;10417103;28;20029;-61
2021/07/03 21:23:00;;;;;;;7.35;6.35;;;21.20;71.80;;;;;;10421962;28;20466;-61
2021/07/03 21:28:01;;;;;;;8.68;7.07;;;21.20;71.80;;;;;;10416609;28;20492;-61
2021/07/03 21:33:03;;;;;;;9.02;7.25;;;21.10;71.70;;;;;;10416396;28;20156;-61
2021/07/03 21:38:07;;;;;;;8.85;6.90;;;21.20;71.70;;;;;;10416036;28;20432;-61
2021/07/03 21:43:08;;;;;;;7.60;5.80;;;21.20;71.70;;;;;;10415779;28;20508;-61
2021/07/03 21:48:12;;;;;;;7.22;6.38;;;21.10;71.60;;;;;;10415679;28;20029;-61
2021/07/03 21:53:13;;;;;;;7.25;6.18;;;21.10;71.60;;;;;;10415513;28;20084;-61
2021/07/03 21:58:14;;;;;;;8.40;7.40;;;21.10;71.60;;;;;;10415374;28;20063;-61
2021/07/03 22:03:18;;;;;;;7.15;6.45;;;21.10;71.70;;;;;;10414860;28;20433;-61
2021/07/03 22:08:20;;;;;;;7.35;6.43;;;21.10;71.60;;;;;;10414930;28;20040;-60
2021/07/03 22:13:24;;;;;;;9.68;6.88;;;21.10;71.60;;;;;;10414805;28;20037;-60
2021/07/03 22:18:28;;;;;;;7.03;5.82;;;21.10;71.50;;;;;;10414777;28;20026;-61
2021/07/03 22:23:29;;;;;;;7.55;5.80;;;21.10;71.50;;;;;;10420250;28;20490;-61
2021/07/03 22:28:30;;;;;;;9.18;7.45;;;21.10;71.50;;;;;;10408633;28;20017;-61
2021/07/03 22:33:31;;;;;;;7.18;6.47;;;21.10;71.60;;;;;;10414321;28;20043;-61
2021/07/03 22:38:31;;;;;;;8.07;6.88;;;21.10;71.40;;;;;;10414325;28;20065;-61
2021/07/03 22:43:32;;;;;;;7.45;6.25;;;21.10;71.70;;;;;;10414230;28;20052;-61
2021/07/03 22:48:32;;;;;;;8.38;7.15;;;21.10;71.60;;;;;;10412849;28;20352;-61
2021/07/03 22:53:33;;;;;;;7.72;6.65;;;21.10;71.50;;;;;;10414179;28;20433;-61
2021/07/03 22:58:34;;;;;;;7.13;6.43;;;21.00;71.50;;;;;;10413966;28;20176;-60
2021/07/03 23:03:35;;;;;;;7.25;6.40;;;21.10;71.50;;;;;;10414153;28;20036;-61
2021/07/03 23:08:35;;;;;;;8.10;6.70;;;21.10;71.50;;;;;;10413797;28;20065;-61
2021/07/03 23:13:36;;;;;;;7.55;6.45;;;21.10;71.50;;;;;;10410761;28;20120;-61
2021/07/03 23:18:37;;;;;;;7.78;6.97;;;21.10;71.60;;;;;;10411864;28;20076;-61
2021/07/03 23:23:37;;;;;;;6.65;5.95;;;21.10;71.50;;;;;;10426942;28;20030;-61
2021/07/03 23:28:38;;;;;;;6.10;5.50;;;21.10;71.50;;;;;;10421380;28;20028;-61
2021/07/03 23:33:41;;;;;;;7.05;6.35;;;21.10;71.40;;;;;;10421075;28;20052;-61
2021/07/03 23:38:42;;;;;;;6.78;6.05;;;21.00;71.40;;;;;;10420651;28;20041;-61
2021/07/03 23:43:43;;;;;;;7.03;6.05;;;21.00;71.40;;;;;;10420506;28;20056;-61
2021/07/03 23:48:43;;;;;;;6.95;6.25;;;21.00;71.40;;;;;;10420546;28;20133;-61
2021/07/03 23:53:44;;;;;;;6.93;6.22;;;21.00;71.40;;;;;;10420130;28;20030;-61
2021/07/03 23:58:46;;;;;;;6.68;6.03;;;21.00;71.30;;;;;;10419894;28;20037;-61
